Time;durP1;ratioP1;P1;durP2;ratioP2;P2;SDS_P1;SDS_P2;PMS_P1;PMS_P2;Temp;Humidity;BMP_temperature;BMP_pressure;BME280_temperature;BME280_humidity;BME280_pressure;Samples;Min_cycle;Max_cycle;Signal;HPM_P1;HPM_P2
2021/10/27 00:02:15;;;;;;;121.32;93.20;;;21.00;49.10;;;;;;4272191;61;21122;-21
2021/10/27 00:07:16;;;;;;;117.50;90.35;;;21.00;49.10;;;;;;4288912;61;21081;-19
2021/10/27 00:12:17;;;;;;;119.82;90.65;;;21.00;49.10;;;;;;4273801;61;21591;-21
2021/10/27 00:17:18;;;;;;;117.20;90.65;;;21.00;49.10;;;;;;4273635;61;21106;-20
2021/10/27 00:22:19;;;;;;;120.15;91.95;;;21.00;49.10;;;;;;4270614;61;21203;-22
2021/10/27 00:27:19;;;;;;;117.82;90.05;;;21.00;49.10;;;;;;4278626;61;21079;-20
2021/10/27 00:32:21;;;;;;;116.07;88.53;;;21.00;49.10;;;;;;4294698;61;21625;-16
2021/10/27 00:37:21;;;;;;;113.57;88.03;;;21.00;49.00;;;;;;4272210;61;21180;-18
2021/10/27 00:42:23;;;;;;;114.82;87.43;;;21.00;49.00;;;;;;4274108;61;21089;-21
2021/10/27 00:47:24;;;;;;;112.07;87.30;;;21.00;49.00;;;;;;4312836;61;21551;-21
2021/10/27 00:52:24;;;;;;;112.47;87.22;;;21.00;49.00;;;;;;4308518;61;21136;-22
2021/10/27 00:57:26;;;;;;;115.47;87.72;;;21.00;49.00;;;;;;4295351;61;21107;-24
2021/10/27 01:02:26;;;;;;;112.95;87.43;;;21.00;49.00;;;;;;4292285;62;21551;-23
2021/10/27 01:07:28;;;;;;;113.12;86.97;;;21.00;49.00;;;;;;4269206;65;21120;-22
2021/10/27 01:12:28;;;;;;;108.63;82.20;;;21.00;49.00;;;;;;4274990;61;21604;-25
2021/10/27 01:17:29;;;;;;;111.25;83.50;;;21.00;48.90;;;;;;4270126;62;21057;-23
2021/10/27 01:22:36;;;;;;;113.00;87.12;;;21.00;49.00;;;;;;4272058;61;21547;-21
2021/10/27 01:27:43;;;;;;;102.57;80.37;;;21.00;49.00;;;;;;4280154;61;21065;-23
2021/10/27 01:32:46;;;;;;;110.55;85.12;;;21.00;48.90;;;;;;4288320;61;21094;-22
2021/10/27 01:37:47;;;;;;;107.43;83.12;;;21.00;48.90;;;;;;4297886;61;21073;-18
2021/10/27 01:42:54;;;;;;;106.82;84.07;;;21.00;48.90;;;;;;4286988;62;21595;-24
2021/10/27 01:47:55;;;;;;;106.40;82.68;;;21.00;48.90;;;;;;4316681;61;21564;-22
2021/10/27 01:52:56;;;;;;;106.95;82.62;;;21.00;48.90;;;;;;4280967;61;21077;-22
2021/10/27 01:57:57;;;;;;;104.87;82.22;;;21.00;48.90;;;;;;4273099;61;21046;-24
2021/10/27 02:03:06;;;;;;;102.82;78.37;;;21.00;48.90;;;;;;4293311;61;21135;-23
2021/10/27 02:08:07;;;;;;;104.20;79.95;;;20.90;48.90;;;;;;4277118;61;21101;-21
2021/10/27 02:13:08;;;;;;;102.45;80.03;;;20.90;48.80;;;;;;4270038;62;21552;-23
2021/10/27 02:18:09;;;;;;;102.10;79.97;;;20.90;48.80;;;;;;4283502;61;21182;-22
2021/10/27 02:23:10;;;;;;;95.60;73.12;;;20.90;48.80;;;;;;4269041;65;21088;-18
2021/10/27 02:28:11;;;;;;;98.40;75.20;;;21.00;48.90;;;;;;4272826;61;21097;-18
2021/10/27 02:33:12;;;;;;;97.05;75.47;;;20.90;48.80;;;;;;4285641;61;21186;-25
2021/10/27 02:38:12;;;;;;;98.75;73.95;;;20.90;48.80;;;;;;4293034;61;21307;-23
2021/10/27 02:43:15;;;;;;;100.12;75.00;;;20.90;48.80;;;;;;4319464;61;22297;-24
2021/10/27 02:48:16;;;;;;;95.43;75.15;;;20.90;48.80;;;;;;4281518;62;21603;-23
2021/10/27 02:53:17;;;;;;;93.25;73.10;;;20.90;48.80;;;;;;4284172;61;21089;-23
2021/10/27 02:58:18;;;;;;;98.18;75.15;;;20.90;48.90;;;;;;4270884;61;21153;-22
2021/10/27 03:03:19;;;;;;;91.70;72.07;;;20.90;48.80;;;;;;4284607;61;22249;-22
2021/10/27 03:08:23;;;;;;;93.80;71.00;;;20.90;48.80;;;;;;4278275;61;21113;-20
2021/10/27 03:13:23;;;;;;;93.62;73.50;;;20.90;48.80;;;;;;4288050;61;21065;-25
2021/10/27 03:18:25;;;;;;;87.88;68.28;;;20.90;48.80;;;;;;4286328;61;21543;-21
2021/10/27 03:23:26;;;;;;;92.90;72.25;;;20.90;48.80;;;;;;4279301;61;21619;-23
2021/10/27 03:28:27;;;;;;;89.22;69.00;;;20.90;48.80;;;;;;4287229;61;21145;-21
2021/10/27 03:33:28;;;;;;;88.68;67.55;;;20.90;48.80;;;;;;4280004;61;21579;-23
2021/10/27 03:38:30;;;;;;;87.37;68.07;;;20.90;48.80;;;;;;4269255;65;21053;-22
2021/10/27 03:43:31;;;;;;;88.45;68.40;;;20.90;48.90;;;;;;4278635;61;21061;-23
2021/10/27 03:48:32;;;;;;;85.00;68.18;;;20.90;48.90;;;;;;4270499;65;21551;-19
2021/10/27 03:53:33;;;;;;;87.30;68.78;;;20.90;48.90;;;;;;4271481;61;21170;-18
2021/10/27 03:58:35;;;;;;;85.78;66.32;;;20.90;48.90;;;;;;4283651;61;21556;-20
2021/10/27 04:03:36;;;;;;;81.43;64.68;;;20.90;48.40;;;;;;4277257;62;21560;-19
2021/10/27 04:08:36;;;;;;;83.25;64.18;;;20.90;48.90;;;;;;4273144;61;21058;-17
2021/10/27 04:13:37;;;;;;;82.05;64.87;;;20.90;48.90;;;;;;4281493;61;21520;-24
2021/10/27 04:18:39;;;;;;;82.90;64.82;;;20.90;48.90;;;;;;4269957;65;21170;-20
2021/10/27 04:23:40;;;;;;;80.47;63.08;;;20.90;48.90;;;;;;4274761;61;21539;-19
2021/10/27 04:28:41;;;;;;;81.70;62.97;;;20.80;48.90;;;;;;4283686;61;21066;-23
2021/10/27 04:33:42;;;;;;;81.12;63.38;;;20.80;48.90;;;;;;4299157;61;21602;-20
2021/10/27 04:38:43;;;;;;;80.35;63.00;;;20.80;49.00;;;;;;4279222;61;21663;-17
2021/10/27 04:43:44;;;;;;;79.93;63.05;;;20.90;49.10;;;;;;4279963;61;21197;-21
2021/10/27 04:48:45;;;;;;;80.95;63.63;;;20.80;49.10;;;;;;4282201;61;21065;-18
2021/10/27 04:53:45;;;;;;;83.15;63.30;;;20.80;49.20;;;;;;4273893;61;21123;-23
2021/10/27 04:58:46;;;;;;;83.47;63.78;;;20.80;49.20;;;;;;4280716;61;21159;-19
2021/10/27 05:03:47;;;;;;;80.68;62.85;;;20.80;49.30;;;;;;4275434;61;21623;-20
2021/10/27 05:08:49;;;;;;;75.35;61.03;;;20.80;49.30;;;;;;4273288;61;21118;-19
2021/10/27 05:13:50;;;;;;;79.35;61.67;;;20.80;49.30;;;;;;4281691;61;21587;-22
2021/10/27 05:18:50;;;;;;;75.95;60.00;;;20.80;49.30;;;;;;4269461;61;21543;-23
2021/10/27 05:23:51;;;;;;;78.80;60.83;;;20.80;49.30;;;;;;4270395;61;21093;-19
2021/10/27 05:28:52;;;;;;;75.85;60.35;;;20.80;49.30;;;;;;4285008;62;21564;-21
2021/10/27 05:33:53;;;;;;;77.37;60.53;;;20.80;49.30;;;;;;4273026;61;21639;-23
2021/10/27 05:38:54;;;;;;;77.00;60.47;;;20.80;49.40;;;;;;4274737;61;21104;-21
2021/10/27 05:43:55;;;;;;;75.70;60.53;;;20.80;49.30;;;;;;4283177;61;21113;-15
2021/10/27 05:49:04;;;;;;;79.85;61.78;;;20.80;49.30;;;;;;4286641;61;21552;-23
2021/10/27 05:59:25;;;;;;;76.60;60.15;;;20.80;49.20;;;;;;4289787;62;21093;-16
2021/10/27 06:04:26;;;;;;;75.45;59.53;;;20.80;49.30;;;;;;4285910;61;21556;-21
2021/10/27 06:09:26;;;;;;;73.30;58.42;;;20.80;49.30;;;;;;4269570;61;21122;-23
2021/10/27 06:14:27;;;;;;;75.90;59.65;;;20.80;49.30;;;;;;4303643;61;21111;-24
2021/10/27 06:19:28;;;;;;;75.22;59.28;;;20.80;49.30;;;;;;4269444;61;21097;-23
2021/10/27 06:24:30;;;;;;;77.85;58.90;;;20.80;49.30;;;;;;4290221;61;21984;-25
2021/10/27 06:29:36;;;;;;;74.75;58.92;;;20.80;49.30;;;;;;4272635;62;21111;-23
2021/10/27 06:34:41;;;;;;;74.57;58.40;;;20.80;49.20;;;;;;4282406;61;21627;-18
2021/10/27 06:50:25;;;;;;;76.80;60.92;;;20.80;49.30;;;;;;4278894;62;21183;-23
2021/10/27 06:55:27;;;;;;;76.47;58.08;;;20.80;49.30;;;;;;4300020;61;21153;-18
2021/10/27 07:00:46;;;;;;;75.85;59.90;;;20.80;49.40;;;;;;4275953;61;21646;-21
2021/10/27 07:06:09;;;;;;;75.47;58.22;;;20.80;49.30;;;;;;4282964;61;21671;-23
2021/10/27 07:16:30;;;;;;;72.75;56.67;;;20.90;49.60;;;;;;4268575;62;21093;-25
2021/10/27 07:21:31;;;;;;;76.43;57.60;;;20.90;49.80;;;;;;4270724;61;21134;-24
2021/10/27 07:26:37;;;;;;;74.50;59.38;;;20.90;49.80;;;;;;4270905;61;21555;-24
2021/10/27 07:31:38;;;;;;;77.30;56.60;;;21.00;50.00;;;;;;4281196;61;21694;-19
2021/10/27 07:41:58;;;;;;;77.37;60.08;;;21.00;50.00;;;;;;4308304;61;21097;-22
2021/10/27 07:47:02;;;;;;;72.75;59.05;;;21.10;50.10;;;;;;4269615;62;21544;-18
2021/10/27 07:52:04;;;;;;;77.53;58.45;;;21.10;50.10;;;;;;4280627;61;21089;-22
2021/10/27 07:57:06;;;;;;;92.62;58.42;;;21.10;51.10;;;;;;4309503;61;21097;-23
2021/10/27 08:02:07;;;;;;;93.87;58.45;;;21.10;52.60;;;;;;4267709;61;21547;-23
2021/10/27 08:07:08;;;;;;;95.32;60.38;;;21.20;52.90;;;;;;4273409;61;21620;-24
2021/10/27 08:12:09;;;;;;;94.70;61.97;;;21.20;53.00;;;;;;4270611;61;21089;-23
2021/10/27 08:17:10;;;;;;;99.45;60.33;;;21.20;52.90;;;;;;4272644;61;21175;-25
2021/10/27 08:22:11;;;;;;;91.45;61.22;;;21.10;52.80;;;;;;4267633;61;21130;-27
2021/10/27 08:27:18;;;;;;;87.85;60.53;;;21.20;52.70;;;;;;4279050;61;22390;-23
2021/10/27 08:32:41;;;;;;;86.28;61.63;;;21.20;52.60;;;;;;4268857;61;21110;-19
2021/10/27 08:37:46;;;;;;;94.20;61.78;;;21.10;52.60;;;;;;4284749;61;21623;-21
2021/10/27 08:42:48;;;;;;;92.70;62.78;;;21.10;52.50;;;;;;4284924;61;22244;-24
2021/10/27 08:47:52;;;;;;;90.60;62.35;;;21.10;52.40;;;;;;4299118;61;21539;-20
2021/10/27 08:52:53;;;;;;;91.70;64.65;;;21.20;52.30;;;;;;4290226;61;21624;-26
2021/10/27 08:57:54;;;;;;;86.15;63.30;;;21.20;52.60;;;;;;4292048;61;21065;-26
2021/10/27 09:03:12;;;;;;;90.75;63.97;;;21.20;52.70;;;;;;4274329;61;21667;-26
2021/10/27 09:17:07;;;;;;;87.35;63.70;;;21.30;53.20;;;;;;4283257;61;21077;-21
2021/10/27 09:39:00;;;;;;;89.22;66.15;;;21.50;54.00;;;;;;4267512;62;22184;-28
2021/10/27 10:06:39;;;;;;;94.68;67.28;;;21.60;54.80;;;;;;4268019;62;21142;-24
2021/10/27 10:11:41;;;;;;;90.07;66.30;;;21.60;54.80;;;;;;4280691;61;21070;-26
2021/10/27 10:16:51;;;;;;;88.03;65.55;;;21.60;54.90;;;;;;4268879;61;22401;-25
2021/10/27 10:21:52;;;;;;;88.37;66.57;;;21.60;54.90;;;;;;4268985;61;21410;-24
2021/10/27 10:27:00;;;;;;;86.45;67.10;;;21.60;54.90;;;;;;4268472;61;21130;-23
2021/10/27 10:39:13;;;;;;;93.43;67.62;;;21.60;55.70;;;;;;4284638;61;21092;-27
2021/10/27 10:44:35;;;;;;;90.43;69.00;;;21.50;54.90;;;;;;4267719;61;21630;-22
2021/10/27 11:04:00;;;;;;;91.10;71.62;;;21.50;54.50;;;;;;4314595;61;21623;-20
2021/10/27 11:38:48;;;;;;;95.45;74.20;;;21.70;55.60;;;;;;4267757;62;21193;-25
2021/10/27 11:49:39;;;;;;;95.72;74.15;;;21.70;56.00;;;;;;4280330;61;21097;-25
2021/10/27 11:54:40;;;;;;;92.35;71.00;;;21.80;56.10;;;;;;4282026;61;21727;-27
2021/10/27 11:59:46;;;;;;;88.87;69.80;;;21.80;56.20;;;;;;4274474;61;21539;-23
2021/10/27 12:04:47;;;;;;;89.43;70.12;;;21.80;56.30;;;;;;4268279;65;21543;-27
2021/10/27 12:10:43;;;;;;;91.97;72.68;;;21.80;56.50;;;;;;4275095;61;21089;-27
2021/10/27 12:16:01;;;;;;;94.28;73.12;;;21.80;56.50;;;;;;4269677;61;21576;-26
2021/10/27 12:21:03;;;;;;;96.55;71.32;;;21.80;56.60;;;;;;4268209;65;21158;-21
2021/10/27 12:26:10;;;;;;;92.85;72.57;;;21.90;56.70;;;;;;4283989;61;21078;-26
2021/10/27 12:31:16;;;;;;;91.37;71.43;;;21.90;56.80;;;;;;4283999;61;21223;-22
2021/10/27 12:36:39;;;;;;;90.65;72.05;;;22.00;56.90;;;;;;4301204;61;21080;-24
2021/10/27 12:41:40;;;;;;;93.87;72.43;;;21.90;57.00;;;;;;4279315;61;21102;-19
2021/10/27 12:46:41;;;;;;;90.00;71.30;;;21.90;57.10;;;;;;4284905;61;21058;-27
2021/10/27 12:51:41;;;;;;;90.93;71.82;;;22.00;57.10;;;;;;4285091;61;21097;-28
2021/10/27 12:56:42;;;;;;;88.95;67.37;;;22.00;57.20;;;;;;4268635;65;21118;-27
2021/10/27 13:01:54;;;;;;;88.95;71.95;;;22.00;57.30;;;;;;4271568;61;21073;-25
2021/10/27 13:07:07;;;;;;;90.40;70.30;;;22.00;57.40;;;;;;4289910;61;21679;-20
2021/10/27 13:19:01;;;;;;;93.53;72.15;;;22.00;57.50;;;;;;4285614;61;21097;-24
2021/10/27 13:29:44;;;;;;;193.07;147.52;;;22.00;53.60;;;;;;4268479;62;21201;-22
2021/10/27 13:34:45;;;;;;;181.02;138.60;;;21.90;51.50;;;;;;4280866;62;21633;-29
2021/10/27 13:39:49;;;;;;;166.52;126.93;;;21.90;49.80;;;;;;4268914;61;21138;-27
2021/10/27 13:45:04;;;;;;;152.80;117.78;;;21.90;48.80;;;;;;4277288;61;21539;-26
2021/10/27 14:12:49;;;;;;;142.00;107.22;;;21.70;46.80;;;;;;4283494;62;21109;-19
2021/10/27 14:18:22;;;;;;;140.30;103.32;;;21.70;47.10;;;;;;4270005;61;21582;-25
2021/10/27 15:23:23;;;;;;;119.20;95.38;;;21.70;49.50;;;;;;4268447;62;21114;-22
2021/10/27 15:34:02;;;;;;;115.20;93.37;;;21.70;49.60;;;;;;4268681;62;20159;-23
2021/10/27 15:50:40;;;;;;;119.82;94.68;;;21.60;49.70;;;;;;4307626;61;21739;-25
2021/10/27 15:55:41;;;;;;;117.75;94.32;;;21.60;49.70;;;;;;4280775;61;21197;-28
2021/10/27 16:00:42;;;;;;;118.50;95.35;;;21.60;49.80;;;;;;4269963;65;21112;-20
2021/10/27 16:05:45;;;;;;;115.10;94.28;;;21.50;49.80;;;;;;4273269;61;21172;-25
2021/10/27 16:10:48;;;;;;;114.32;93.18;;;21.50;49.90;;;;;;4274475;61;21536;-24
2021/10/27 16:15:56;;;;;;;120.00;95.30;;;21.50;49.90;;;;;;4290367;61;21515;-25
2021/10/27 16:20:59;;;;;;;115.12;94.37;;;21.50;50.00;;;;;;4281033;61;22171;-30
2021/10/27 16:26:00;;;;;;;115.60;94.35;;;21.50;50.00;;;;;;4281884;61;21122;-26
2021/10/27 16:31:03;;;;;;;117.03;92.85;;;21.50;50.10;;;;;;4287884;62;21195;-27
2021/10/27 16:36:04;;;;;;;114.70;93.57;;;21.50;50.10;;;;;;4269260;65;21532;-27
2021/10/27 16:41:05;;;;;;;117.13;94.85;;;21.50;50.10;;;;;;4268522;65;21547;-25
2021/10/27 16:46:09;;;;;;;113.28;91.72;;;21.50;50.20;;;;;;4272065;61;21167;-20
2021/10/27 16:51:10;;;;;;;110.35;90.28;;;21.50;50.20;;;;;;4292717;61;21053;-19
2021/10/27 16:56:11;;;;;;;116.18;92.50;;;21.40;50.20;;;;;;4268320;65;21078;-24
2021/10/27 17:01:11;;;;;;;115.22;93.07;;;21.40;50.20;;;;;;4274659;61;21070;-24
2021/10/27 17:06:12;;;;;;;116.68;93.10;;;21.40;50.30;;;;;;4274195;61;21081;-25
2021/10/27 17:11:13;;;;;;;116.65;93.40;;;21.40;50.30;;;;;;4288291;61;21114;-25
2021/10/27 17:16:15;;;;;;;110.85;87.85;;;21.50;50.40;;;;;;4269630;65;21453;-22
2021/10/27 17:21:16;;;;;;;115.18;94.30;;;21.40;50.30;;;;;;4274784;61;21646;-26
2021/10/27 17:26:18;;;;;;;117.65;94.87;;;21.40;50.30;;;;;;4276050;61;21209;-24
2021/10/27 17:31:19;;;;;;;116.43;95.35;;;21.40;50.30;;;;;;4270217;65;21623;-27
2021/10/27 17:36:23;;;;;;;120.70;96.20;;;21.40;50.30;;;;;;4297655;61;21193;-29
2021/10/27 17:41:27;;;;;;;112.18;90.20;;;21.40;50.40;;;;;;4272578;61;21050;-29
2021/10/27 17:46:46;;;;;;;116.62;94.65;;;21.40;50.40;;;;;;4292739;61;21131;-25
2021/10/27 17:51:56;;;;;;;114.88;94.75;;;21.40;50.40;;;;;;4283119;61;21638;-24
2021/10/27 18:02:18;;;;;;;112.78;91.87;;;21.40;50.50;;;;;;4271443;62;21575;-26
2021/10/27 18:07:23;;;;;;;117.07;93.65;;;21.40;50.50;;;;;;4319540;61;21608;-26
2021/10/27 18:12:26;;;;;;;117.00;95.03;;;21.40;50.60;;;;;;4291026;61;21147;-24
2021/10/27 18:17:30;;;;;;;115.35;94.62;;;21.40;50.60;;;;;;4271836;61;22004;-24
2021/10/27 18:22:52;;;;;;;119.05;95.35;;;21.40;50.70;;;;;;4270565;61;22253;-22
2021/10/27 18:36:14;;;;;;;116.60;95.97;;;21.30;50.60;;;;;;4272764;61;21613;-20
2021/10/27 18:41:24;;;;;;;116.12;93.25;;;21.30;50.70;;;;;;4270004;61;21568;-22
2021/10/27 18:46:25;;;;;;;112.45;91.95;;;21.30;50.70;;;;;;4275557;61;21575;-23
2021/10/27 18:51:33;;;;;;;114.32;94.22;;;21.30;50.70;;;;;;4269779;65;21997;-22
2021/10/27 19:02:07;;;;;;;119.20;92.22;;;21.30;50.70;;;;;;4279654;62;21097;-22
2021/10/27 19:17:50;;;;;;;120.00;97.55;;;21.30;50.70;;;;;;4276962;61;21566;-29
2021/10/27 19:22:51;;;;;;;111.97;92.85;;;21.30;50.70;;;;;;4289100;61;21073;-24
2021/10/27 19:28:03;;;;;;;114.07;93.43;;;21.30;50.70;;;;;;4269800;65;21189;-28
2021/10/27 19:33:16;;;;;;;115.78;93.43;;;21.30;50.70;;;;;;4292701;61;21692;-21
2021/10/27 20:10:24;;;;;;;108.53;87.45;;;21.30;50.70;;;;;;4274472;62;21093;-31
2021/10/27 20:16:21;;;;;;;112.00;89.75;;;21.30;50.70;;;;;;4269556;65;21672;-22
2021/10/27 20:27:18;;;;;;;109.65;89.28;;;21.20;50.60;;;;;;4269102;62;21082;-24
2021/10/27 20:49:43;;;;;;;107.55;88.10;;;21.20;50.60;;;;;;4268970;62;21085;-19
2021/10/27 20:54:47;;;;;;;106.93;88.85;;;21.20;50.60;;;;;;4331256;61;21105;-24
2021/10/27 20:59:57;;;;;;;104.20;86.28;;;21.20;50.50;;;;;;4271650;62;21543;-28
2021/10/27 21:15:36;;;;;;;107.90;89.15;;;21.20;50.50;;;;;;4269744;62;21097;-24
2021/10/27 21:20:37;;;;;;;110.53;88.47;;;21.20;50.50;;;;;;4297045;61;21074;-22
2021/10/27 21:25:39;;;;;;;107.37;87.25;;;21.20;50.50;;;;;;4270074;61;21656;-18
2021/10/27 21:42:52;;;;;;;105.45;84.80;;;21.20;50.40;;;;;;4269333;62;21153;-24
2021/10/27 21:47:53;;;;;;;103.28;86.22;;;21.20;50.40;;;;;;4299207;61;21084;-23
2021/10/27 21:52:54;;;;;;;102.32;85.80;;;21.20;50.30;;;;;;4284590;61;21539;-20
2021/10/27 21:57:55;;;;;;;103.82;85.45;;;21.20;50.30;;;;;;4305851;61;21583;-24
2021/10/27 22:02:56;;;;;;;102.18;83.32;;;21.20;50.30;;;;;;4286669;61;21084;-26
2021/10/27 22:07:57;;;;;;;103.43;84.00;;;21.20;50.30;;;;;;4307998;61;21069;-27
2021/10/27 22:12:58;;;;;;;103.53;83.57;;;21.20;50.20;;;;;;4286027;61;21555;-20
2021/10/27 22:17:59;;;;;;;103.32;83.57;;;21.20;50.20;;;;;;4273445;61;21058;-24
2021/10/27 22:23:00;;;;;;;104.38;84.55;;;21.10;50.10;;;;;;4286770;61;21105;-32
2021/10/27 22:28:01;;;;;;;105.18;84.28;;;21.20;50.20;;;;;;4270436;65;21062;-24
2021/10/27 22:33:02;;;;;;;108.20;85.80;;;21.10;50.10;;;;;;4286128;61;21082;-26
2021/10/27 22:38:03;;;;;;;103.35;83.87;;;21.10;50.10;;;;;;4270066;65;21595;-23
2021/10/27 22:43:04;;;;;;;102.68;82.18;;;21.10;50.10;;;;;;4307998;61;21077;-26
2021/10/27 22:48:05;;;;;;;103.78;83.43;;;21.10;50.20;;;;;;4269780;65;21051;-20
2021/10/27 22:53:06;;;;;;;104.03;82.93;;;21.10;50.20;;;;;;4308787;61;21134;-21
2021/10/27 22:58:11;;;;;;;103.32;82.68;;;21.10;50.00;;;;;;4277825;62;21061;-17
2021/10/27 23:03:25;;;;;;;103.12;83.37;;;21.10;50.00;;;;;;4284712;61;22087;-24
2021/10/27 23:08:42;;;;;;;101.87;81.47;;;21.10;50.00;;;;;;4270110;65;21150;-23
2021/10/27 23:15:29;;;;;;;101.28;81.53;;;21.10;49.90;;;;;;4287611;61;21625;-25
2021/10/27 23:41:55;;;;;;;100.50;79.25;;;21.10;49.80;;;;;;4269388;62;21113;-21
2021/10/27 23:46:57;;;;;;;101.38;78.05;;;21.10;49.70;;;;;;4270775;61;21591;-21
2021/10/27 23:52:00;;;;;;;98.10;77.37;;;21.10;49.70;;;;;;4270089;65;21194;-19
2021/10/27 23:57:20;;;;;;;101.97;80.03;;;21.10;49.70;;;;;;4299725;61;21575;-26
